sensor_id;sensor_type;location;lat;lon;timestamp;temperature;humidity
76384;SHT30;65204;48.606;7.598;2023-11-19T00:00:27;12.50;75.79
76384;SHT30;65204;48.606;7.598;2023-11-19T00:00:57;12.52;75.74
76384;SHT30;65204;48.606;7.598;2023-11-19T00:01:28;12.53;75.81
76384;SHT30;65204;48.606;7.598;2023-11-19T00:01:58;12.56;75.74
76384;SHT30;65204;48.606;7.598;2023-11-19T00:02:28;12.55;75.73
76384;SHT30;65204;48.606;7.598;2023-11-19T00:02:59;12.56;75.76
76384;SHT30;65204;48.606;7.598;2023-11-19T00:03:29;12.55;75.73
76384;SHT30;65204;48.606;7.598;2023-11-19T00:03:59;12.57;75.74
76384;SHT30;65204;48.606;7.598;2023-11-19T00:04:30;12.57;75.72
76384;SHT30;65204;48.606;7.598;2023-11-19T00:05:00;12.57;75.73
76384;SHT30;65204;48.606;7.598;2023-11-19T00:05:31;12.57;75.68
76384;SHT30;65204;48.606;7.598;2023-11-19T00:06:01;12.59;75.70
76384;SHT30;65204;48.606;7.598;2023-11-19T00:06:31;12.60;75.64
76384;SHT30;65204;48.606;7.598;2023-11-19T00:07:02;12.60;75.68
76384;SHT30;65204;48.606;7.598;2023-11-19T00:07:35;12.60;75.70
76384;SHT30;65204;48.606;7.598;2023-11-19T00:08:06;12.60;75.70
76384;SHT30;65204;48.606;7.598;2023-11-19T00:08:37;12.60;75.72
76384;SHT30;65204;48.606;7.598;2023-11-19T00:09:07;12.59;75.67
76384;SHT30;65204;48.606;7.598;2023-11-19T00:09:38;12.63;75.74
76384;SHT30;65204;48.606;7.598;2023-11-19T00:10:14;12.59;75.72
76384;SHT30;65204;48.606;7.598;2023-11-19T00:10:48;12.63;75.74
76384;SHT30;65204;48.606;7.598;2023-11-19T00:11:18;12.63;75.69
76384;SHT30;65204;48.606;7.598;2023-11-19T00:11:49;12.64;75.70
76384;SHT30;65204;48.606;7.598;2023-11-19T00:12:19;12.63;75.67
76384;SHT30;65204;48.606;7.598;2023-11-19T00:12:49;12.64;75.75
76384;SHT30;65204;48.606;7.598;2023-11-19T00:13:20;12.60;75.78
76384;SHT30;65204;48.606;7.598;2023-11-19T00:13:50;12.62;75.81
76384;SHT30;65204;48.606;7.598;2023-11-19T00:14:21;12.63;75.81
76384;SHT30;65204;48.606;7.598;2023-11-19T00:14:51;12.63;75.78
76384;SHT30;65204;48.606;7.598;2023-11-19T00:15:22;12.64;75.74
76384;SHT30;65204;48.606;7.598;2023-11-19T00:15:54;12.66;75.76
76384;SHT30;65204;48.606;7.598;2023-11-19T00:16:24;12.66;75.79
76384;SHT30;65204;48.606;7.598;2023-11-19T00:16:56;12.67;75.81
76384;SHT30;65204;48.606;7.598;2023-11-19T00:17:26;12.69;75.81
76384;SHT30;65204;48.606;7.598;2023-11-19T00:17:57;12.69;75.81
76384;SHT30;65204;48.606;7.598;2023-11-19T00:18:27;12.67;75.80
76384;SHT30;65204;48.606;7.598;2023-11-19T00:18:58;12.69;75.81
76384;SHT30;65204;48.606;7.598;2023-11-19T00:19:29;12.70;75.77
76384;SHT30;65204;48.606;7.598;2023-11-19T00:20:00;12.70;75.74
76384;SHT30;65204;48.606;7.598;2023-11-19T00:20:30;12.69;75.78
76384;SHT30;65204;48.606;7.598;2023-11-19T00:21:01;12.69;75.80
76384;SHT30;65204;48.606;7.598;2023-11-19T00:21:32;12.72;75.84
76384;SHT30;65204;48.606;7.598;2023-11-19T00:22:03;12.69;75.89
76384;SHT30;65204;48.606;7.598;2023-11-19T00:22:33;12.66;75.92
76384;SHT30;65204;48.606;7.598;2023-11-19T00:23:04;12.67;75.93
76384;SHT30;65204;48.606;7.598;2023-11-19T00:23:34;12.69;75.95
76384;SHT30;65204;48.606;7.598;2023-11-19T00:24:05;12.66;75.98
76384;SHT30;65204;48.606;7.598;2023-11-19T00:24:35;12.67;76.00
76384;SHT30;65204;48.606;7.598;2023-11-19T00:25:06;12.69;75.95
76384;SHT30;65204;48.606;7.598;2023-11-19T00:25:36;12.67;75.94
76384;SHT30;65204;48.606;7.598;2023-11-19T00:26:08;12.72;75.97
76384;SHT30;65204;48.606;7.598;2023-11-19T00:26:39;12.67;76.03
76384;SHT30;65204;48.606;7.598;2023-11-19T00:27:10;12.70;76.05
76384;SHT30;65204;48.606;7.598;2023-11-19T00:27:40;12.73;76.10
76384;SHT30;65204;48.606;7.598;2023-11-19T00:28:10;12.69;76.06
76384;SHT30;65204;48.606;7.598;2023-11-19T00:28:41;12.70;76.13
76384;SHT30;65204;48.606;7.598;2023-11-19T00:29:11;12.72;76.07
76384;SHT30;65204;48.606;7.598;2023-11-19T00:29:43;12.72;76.08
76384;SHT30;65204;48.606;7.598;2023-11-19T00:30:15;12.72;76.10
76384;SHT30;65204;48.606;7.598;2023-11-19T00:30:45;12.75;76.08
76384;SHT30;65204;48.606;7.598;2023-11-19T00:31:16;12.73;76.10
76384;SHT30;65204;48.606;7.598;2023-11-19T00:31:46;12.75;76.09
76384;SHT30;65204;48.606;7.598;2023-11-19T00:32:17;12.73;76.13
76384;SHT30;65204;48.606;7.598;2023-11-19T00:32:47;12.75;76.11
76384;SHT30;65204;48.606;7.598;2023-11-19T00:33:17;12.75;76.13
76384;SHT30;65204;48.606;7.598;2023-11-19T00:33:48;12.76;76.12
76384;SHT30;65204;48.606;7.598;2023-11-19T00:34:18;12.75;76.08
76384;SHT30;65204;48.606;7.598;2023-11-19T00:34:51;12.76;76.11
76384;SHT30;65204;48.606;7.598;2023-11-19T00:35:21;12.79;76.16
76384;SHT30;65204;48.606;7.598;2023-11-19T00:35:52;12.76;76.11
76384;SHT30;65204;48.606;7.598;2023-11-19T00:36:22;12.79;76.11
76384;SHT30;65204;48.606;7.598;2023-11-19T00:36:54;12.77;76.15
76384;SHT30;65204;48.606;7.598;2023-11-19T00:37:26;12.79;76.12
76384;SHT30;65204;48.606;7.598;2023-11-19T00:37:56;12.77;76.17
76384;SHT30;65204;48.606;7.598;2023-11-19T00:38:28;12.82;76.16
76384;SHT30;65204;48.606;7.598;2023-11-19T00:38:59;12.82;76.17
76384;SHT30;65204;48.606;7.598;2023-11-19T00:39:29;12.82;76.28
76384;SHT30;65204;48.606;7.598;2023-11-19T00:39:59;12.80;76.26
76384;SHT30;65204;48.606;7.598;2023-11-19T00:40:30;12.79;76.37
76384;SHT30;65204;48.606;7.598;2023-11-19T00:41:00;12.77;76.46
76384;SHT30;65204;48.606;7.598;2023-11-19T00:41:32;12.80;76.47
76384;SHT30;65204;48.606;7.598;2023-11-19T00:42:03;12.79;76.44
76384;SHT30;65204;48.606;7.598;2023-11-19T00:42:33;12.80;76.46
76384;SHT30;65204;48.606;7.598;2023-11-19T00:43:04;12.80;76.43
76384;SHT30;65204;48.606;7.598;2023-11-19T00:43:34;12.82;76.42
76384;SHT30;65204;48.606;7.598;2023-11-19T00:44:04;12.82;76.47
76384;SHT30;65204;48.606;7.598;2023-11-19T00:44:35;12.83;76.42
76384;SHT30;65204;48.606;7.598;2023-11-19T00:45:06;12.83;76.44
76384;SHT30;65204;48.606;7.598;2023-11-19T00:45:39;12.84;76.51
76384;SHT30;65204;48.606;7.598;2023-11-19T00:46:10;12.82;76.58
76384;SHT30;65204;48.606;7.598;2023-11-19T00:46:46;12.82;76.60
76384;SHT30;65204;48.606;7.598;2023-11-19T00:47:17;12.84;76.51
76384;SHT30;65204;48.606;7.598;2023-11-19T00:47:50;12.84;76.58
76384;SHT30;65204;48.606;7.598;2023-11-19T00:48:20;12.84;76.55
76384;SHT30;65204;48.606;7.598;2023-11-19T00:48:51;12.82;76.61
76384;SHT30;65204;48.606;7.598;2023-11-19T00:49:21;12.83;76.66
76384;SHT30;65204;48.606;7.598;2023-11-19T00:49:51;12.82;76.65
76384;SHT30;65204;48.606;7.598;2023-11-19T00:50:22;12.83;76.64
76384;SHT30;65204;48.606;7.598;2023-11-19T00:50:53;12.84;76.58
76384;SHT30;65204;48.606;7.598;2023-11-19T00:51:23;12.82;76.74
76384;SHT30;65204;48.606;7.598;2023-11-19T00:51:53;12.83;76.77
76384;SHT30;65204;48.606;7.598;2023-11-19T00:52:24;12.83;76.69
76384;SHT30;65204;48.606;7.598;2023-11-19T00:52:54;12.83;76.79
76384;SHT30;65204;48.606;7.598;2023-11-19T00:53:25;12.83;76.75
76384;SHT30;65204;48.606;7.598;2023-11-19T00:53:55;12.84;76.71
76384;SHT30;65204;48.606;7.598;2023-11-19T00:54:25;12.86;76.67
76384;SHT30;65204;48.606;7.598;2023-11-19T00:54:56;12.86;76.70
76384;SHT30;65204;48.606;7.598;2023-11-19T00:55:27;12.90;76.64
76384;SHT30;65204;48.606;7.598;2023-11-19T00:55:57;12.89;76.64
76384;SHT30;65204;48.606;7.598;2023-11-19T00:56:28;12.90;76.60
76384;SHT30;65204;48.606;7.598;2023-11-19T00:56:58;12.93;76.55
76384;SHT30;65204;48.606;7.598;2023-11-19T00:57:28;12.93;76.50
76384;SHT30;65204;48.606;7.598;2023-11-19T00:57:59;12.94;76.49
76384;SHT30;65204;48.606;7.598;2023-11-19T00:58:29;12.96;76.48
76384;SHT30;65204;48.606;7.598;2023-11-19T00:58:59;12.96;76.45
76384;SHT30;65204;48.606;7.598;2023-11-19T00:59:30;12.97;76.44
76384;SHT30;65204;48.606;7.598;2023-11-19T01:00:00;12.93;76.62
76384;SHT30;65204;48.606;7.598;2023-11-19T01:00:31;12.94;76.55
76384;SHT30;65204;48.606;7.598;2023-11-19T01:01:02;12.96;76.67
76384;SHT30;65204;48.606;7.598;2023-11-19T01:01:33;12.96;76.60
76384;SHT30;65204;48.606;7.598;2023-11-19T01:02:03;12.94;76.63
76384;SHT30;65204;48.606;7.598;2023-11-19T01:02:36;12.97;76.66
76384;SHT30;65204;48.606;7.598;2023-11-19T01:03:06;12.96;76.60
76384;SHT30;65204;48.606;7.598;2023-11-19T01:03:37;12.96;76.65
76384;SHT30;65204;48.606;7.598;2023-11-19T01:04:07;12.97;76.64
76384;SHT30;65204;48.606;7.598;2023-11-19T01:04:38;12.93;76.74
76384;SHT30;65204;48.606;7.598;2023-11-19T01:05:09;12.97;76.73
76384;SHT30;65204;48.606;7.598;2023-11-19T01:05:39;12.96;76.74
76384;SHT30;65204;48.606;7.598;2023-11-19T01:06:10;12.99;76.76
76384;SHT30;65204;48.606;7.598;2023-11-19T01:06:40;12.97;76.75
76384;SHT30;65204;48.606;7.598;2023-11-19T01:07:12;12.99;76.81
76384;SHT30;65204;48.606;7.598;2023-11-19T01:07:43;12.97;76.82
76384;SHT30;65204;48.606;7.598;2023-11-19T01:08:13;12.97;76.83
76384;SHT30;65204;48.606;7.598;2023-11-19T01:08:43;12.99;76.83
76384;SHT30;65204;48.606;7.598;2023-11-19T01:09:14;12.97;76.86
76384;SHT30;65204;48.606;7.598;2023-11-19T01:09:45;12.97;76.84
76384;SHT30;65204;48.606;7.598;2023-11-19T01:10:15;12.97;76.84
76384;SHT30;65204;48.606;7.598;2023-11-19T01:10:46;13.00;76.84
76384;SHT30;65204;48.606;7.598;2023-11-19T01:11:23;13.02;76.83
76384;SHT30;65204;48.606;7.598;2023-11-19T01:11:53;13.00;76.89
76384;SHT30;65204;48.606;7.598;2023-11-19T01:12:24;13.00;76.87
76384;SHT30;65204;48.606;7.598;2023-11-19T01:12:54;13.02;76.87
76384;SHT30;65204;48.606;7.598;2023-11-19T01:13:25;13.02;76.82
76384;SHT30;65204;48.606;7.598;2023-11-19T01:13:55;12.99;77.02
76384;SHT30;65204;48.606;7.598;2023-11-19T01:14:26;13.02;76.94
76384;SHT30;65204;48.606;7.598;2023-11-19T01:14:56;13.03;76.97
76384;SHT30;65204;48.606;7.598;2023-11-19T01:15:28;13.00;76.96
76384;SHT30;65204;48.606;7.598;2023-11-19T01:15:58;13.02;77.00
76384;SHT30;65204;48.606;7.598;2023-11-19T01:16:28;13.03;76.97
76384;SHT30;65204;48.606;7.598;2023-11-19T01:16:59;13.02;76.93
76384;SHT30;65204;48.606;7.598;2023-11-19T01:17:30;13.06;76.98
76384;SHT30;65204;48.606;7.598;2023-11-19T01:18:02;13.06;76.91
76384;SHT30;65204;48.606;7.598;2023-11-19T01:18:35;13.06;76.92
76384;SHT30;65204;48.606;7.598;2023-11-19T01:19:05;13.08;76.88
76384;SHT30;65204;48.606;7.598;2023-11-19T01:19:36;13.08;76.87
76384;SHT30;65204;48.606;7.598;2023-11-19T01:20:06;13.08;76.89
76384;SHT30;65204;48.606;7.598;2023-11-19T01:20:37;13.07;76.84
76384;SHT30;65204;48.606;7.598;2023-11-19T01:21:07;13.07;76.86
76384;SHT30;65204;48.606;7.598;2023-11-19T01:21:38;13.10;76.80
76384;SHT30;65204;48.606;7.598;2023-11-19T01:22:08;13.11;76.89
76384;SHT30;65204;48.606;7.598;2023-11-19T01:22:39;13.11;76.84
76384;SHT30;65204;48.606;7.598;2023-11-19T01:23:10;13.13;76.81
76384;SHT30;65204;48.606;7.598;2023-11-19T01:23:41;13.14;76.88
76384;SHT30;65204;48.606;7.598;2023-11-19T01:24:14;13.11;76.87
76384;SHT30;65204;48.606;7.598;2023-11-19T01:24:45;13.13;76.92
76384;SHT30;65204;48.606;7.598;2023-11-19T01:25:16;13.15;76.83
76384;SHT30;65204;48.606;7.598;2023-11-19T01:25:46;13.14;76.78
76384;SHT30;65204;48.606;7.598;2023-11-19T01:26:18;13.15;76.82
76384;SHT30;65204;48.606;7.598;2023-11-19T01:26:48;13.15;76.78
76384;SHT30;65204;48.606;7.598;2023-11-19T01:27:19;13.15;76.79
76384;SHT30;65204;48.606;7.598;2023-11-19T01:27:49;13.14;76.85
76384;SHT30;65204;48.606;7.598;2023-11-19T01:28:20;13.17;76.83
76384;SHT30;65204;48.606;7.598;2023-11-19T01:28:50;13.14;76.79
76384;SHT30;65204;48.606;7.598;2023-11-19T01:29:22;13.17;76.84
76384;SHT30;65204;48.606;7.598;2023-11-19T01:29:53;13.18;76.80
76384;SHT30;65204;48.606;7.598;2023-11-19T01:30:24;13.18;76.84
76384;SHT30;65204;48.606;7.598;2023-11-19T01:30:54;13.17;76.82
76384;SHT30;65204;48.606;7.598;2023-11-19T01:31:24;13.18;76.86
76384;SHT30;65204;48.606;7.598;2023-11-19T01:31:55;13.15;76.92
76384;SHT30;65204;48.606;7.598;2023-11-19T01:32:25;13.17;76.93
76384;SHT30;65204;48.606;7.598;2023-11-19T01:32:55;13.15;76.98
76384;SHT30;65204;48.606;7.598;2023-11-19T01:33:26;13.17;77.00
76384;SHT30;65204;48.606;7.598;2023-11-19T01:33:57;13.14;77.05
76384;SHT30;65204;48.606;7.598;2023-11-19T01:34:27;13.14;76.98
76384;SHT30;65204;48.606;7.598;2023-11-19T01:34:58;13.18;76.95
76384;SHT30;65204;48.606;7.598;2023-11-19T01:35:29;13.20;76.94
76384;SHT30;65204;48.606;7.598;2023-11-19T01:35:59;13.20;76.96
76384;SHT30;65204;48.606;7.598;2023-11-19T01:36:29;13.20;76.90
76384;SHT30;65204;48.606;7.598;2023-11-19T01:36:59;13.23;76.90
76384;SHT30;65204;48.606;7.598;2023-11-19T01:37:30;13.25;76.87
76384;SHT30;65204;48.606;7.598;2023-11-19T01:38:02;13.23;76.92
76384;SHT30;65204;48.606;7.598;2023-11-19T01:38:32;13.24;76.91
76384;SHT30;65204;48.606;7.598;2023-11-19T01:39:03;13.23;76.90
76384;SHT30;65204;48.606;7.598;2023-11-19T01:39:34;13.23;76.92
76384;SHT30;65204;48.606;7.598;2023-11-19T01:40:05;13.20;76.94
76384;SHT30;65204;48.606;7.598;2023-11-19T01:40:37;13.20;76.94
76384;SHT30;65204;48.606;7.598;2023-11-19T01:41:08;13.23;76.91
76384;SHT30;65204;48.606;7.598;2023-11-19T01:41:38;13.20;76.99
76384;SHT30;65204;48.606;7.598;2023-11-19T01:42:09;13.23;76.93
76384;SHT30;65204;48.606;7.598;2023-11-19T01:42:40;13.23;76.95
76384;SHT30;65204;48.606;7.598;2023-11-19T01:43:11;13.23;76.99
76384;SHT30;65204;48.606;7.598;2023-11-19T01:43:41;13.21;77.01
76384;SHT30;65204;48.606;7.598;2023-11-19T01:44:12;13.23;76.98
76384;SHT30;65204;48.606;7.598;2023-11-19T01:44:53;13.25;76.98
76384;SHT30;65204;48.606;7.598;2023-11-19T01:45:28;13.20;77.00
76384;SHT30;65204;48.606;7.598;2023-11-19T01:46:05;13.20;77.13
76384;SHT30;65204;48.606;7.598;2023-11-19T01:46:35;13.17;77.15
76384;SHT30;65204;48.606;7.598;2023-11-19T01:47:07;13.21;77.08
76384;SHT30;65204;48.606;7.598;2023-11-19T01:47:38;13.23;77.11
76384;SHT30;65204;48.606;7.598;2023-11-19T01:48:08;13.20;77.14
76384;SHT30;65204;48.606;7.598;2023-11-19T01:48:45;13.24;77.06
76384;SHT30;65204;48.606;7.598;2023-11-19T01:49:17;13.24;77.02
76384;SHT30;65204;48.606;7.598;2023-11-19T01:49:49;13.25;77.04
76384;SHT30;65204;48.606;7.598;2023-11-19T01:50:19;13.21;77.07
76384;SHT30;65204;48.606;7.598;2023-11-19T01:50:50;13.21;77.09
76384;SHT30;65204;48.606;7.598;2023-11-19T01:51:22;13.24;77.07
76384;SHT30;65204;48.606;7.598;2023-11-19T01:51:53;13.24;77.07
76384;SHT30;65204;48.606;7.598;2023-11-19T01:52:23;13.25;77.02
76384;SHT30;65204;48.606;7.598;2023-11-19T01:52:54;13.24;76.97
76384;SHT30;65204;48.606;7.598;2023-11-19T01:53:28;13.27;76.98
76384;SHT30;65204;48.606;7.598;2023-11-19T01:53:59;13.25;77.10
76384;SHT30;65204;48.606;7.598;2023-11-19T01:54:29;13.24;77.15
76384;SHT30;65204;48.606;7.598;2023-11-19T01:55:00;13.24;77.09
76384;SHT30;65204;48.606;7.598;2023-11-19T01:55:31;13.25;77.12
76384;SHT30;65204;48.606;7.598;2023-11-19T01:56:02;13.23;77.14
76384;SHT30;65204;48.606;7.598;2023-11-19T01:56:33;13.25;77.13
76384;SHT30;65204;48.606;7.598;2023-11-19T01:57:04;13.27;77.07
76384;SHT30;65204;48.606;7.598;2023-11-19T01:57:35;13.27;77.09
76384;SHT30;65204;48.606;7.598;2023-11-19T01:58:07;13.25;77.17
76384;SHT30;65204;48.606;7.598;2023-11-19T01:58:39;13.28;77.13
76384;SHT30;65204;48.606;7.598;2023-11-19T01:59:11;13.27;77.10
76384;SHT30;65204;48.606;7.598;2023-11-19T01:59:44;13.27;77.18
76384;SHT30;65204;48.606;7.598;2023-11-19T02:00:15;13.27;77.16
76384;SHT30;65204;48.606;7.598;2023-11-19T02:00:46;13.25;77.19
76384;SHT30;65204;48.606;7.598;2023-11-19T02:01:16;13.28;77.16
76384;SHT30;65204;48.606;7.598;2023-11-19T02:01:47;13.25;77.14
76384;SHT30;65204;48.606;7.598;2023-11-19T02:02:18;13.24;77.14
76384;SHT30;65204;48.606;7.598;2023-11-19T02:02:52;13.27;77.17
76384;SHT30;65204;48.606;7.598;2023-11-19T02:03:22;13.24;77.14
76384;SHT30;65204;48.606;7.598;2023-11-19T02:03:55;13.25;77.16
76384;SHT30;65204;48.606;7.598;2023-11-19T02:04:28;13.27;77.12
76384;SHT30;65204;48.606;7.598;2023-11-19T02:04:58;13.28;77.17
76384;SHT30;65204;48.606;7.598;2023-11-19T02:05:30;13.28;77.13
76384;SHT30;65204;48.606;7.598;2023-11-19T02:06:03;13.28;77.12
76384;SHT30;65204;48.606;7.598;2023-11-19T02:06:34;13.27;77.17
76384;SHT30;65204;48.606;7.598;2023-11-19T02:07:06;13.27;77.22
76384;SHT30;65204;48.606;7.598;2023-11-19T02:07:36;13.27;77.21
76384;SHT30;65204;48.606;7.598;2023-11-19T02:08:07;13.24;77.32
76384;SHT30;65204;48.606;7.598;2023-11-19T02:08:38;13.25;77.38
76384;SHT30;65204;48.606;7.598;2023-11-19T02:09:08;13.27;77.33
76384;SHT30;65204;48.606;7.598;2023-11-19T02:09:42;13.30;77.30
76384;SHT30;65204;48.606;7.598;2023-11-19T02:10:13;13.30;77.30
76384;SHT30;65204;48.606;7.598;2023-11-19T02:10:44;13.31;77.28
76384;SHT30;65204;48.606;7.598;2023-11-19T02:11:15;13.30;77.24
76384;SHT30;65204;48.606;7.598;2023-11-19T02:11:45;13.31;77.23
76384;SHT30;65204;48.606;7.598;2023-11-19T02:12:21;13.33;77.23
76384;SHT30;65204;48.606;7.598;2023-11-19T02:12:51;13.30;77.20
76384;SHT30;65204;48.606;7.598;2023-11-19T02:13:22;13.30;77.17
76384;SHT30;65204;48.606;7.598;2023-11-19T02:13:53;13.31;77.22
76384;SHT30;65204;48.606;7.598;2023-11-19T02:14:25;13.31;77.22
76384;SHT30;65204;48.606;7.598;2023-11-19T02:14:57;13.35;77.21
76384;SHT30;65204;48.606;7.598;2023-11-19T02:15:29;13.34;77.25
76384;SHT30;65204;48.606;7.598;2023-11-19T02:15:59;13.31;77.17
76384;SHT30;65204;48.606;7.598;2023-11-19T02:16:32;13.33;77.22
76384;SHT30;65204;48.606;7.598;2023-11-19T02:17:02;13.31;77.22
76384;SHT30;65204;48.606;7.598;2023-11-19T02:17:33;13.33;77.27
76384;SHT30;65204;48.606;7.598;2023-11-19T02:18:36;13.28;77.33
76384;SHT30;65204;48.606;7.598;2023-11-19T02:19:07;13.30;77.38
76384;SHT30;65204;48.606;7.598;2023-11-19T02:19:38;13.30;77.34
76384;SHT30;65204;48.606;7.598;2023-11-19T02:20:08;13.30;77.48
76384;SHT30;65204;48.606;7.598;2023-11-19T02:20:41;13.27;77.60
76384;SHT30;65204;48.606;7.598;2023-11-19T02:21:12;13.27;77.50
76384;SHT30;65204;48.606;7.598;2023-11-19T02:21:45;13.33;77.47
76384;SHT30;65204;48.606;7.598;2023-11-19T02:22:15;13.31;77.45
76384;SHT30;65204;48.606;7.598;2023-11-19T02:22:46;13.31;77.40
76384;SHT30;65204;48.606;7.598;2023-11-19T02:23:19;13.31;77.42
76384;SHT30;65204;48.606;7.598;2023-11-19T02:23:50;13.33;77.53
76384;SHT30;65204;48.606;7.598;2023-11-19T02:24:22;13.34;77.54
76384;SHT30;65204;48.606;7.598;2023-11-19T02:24:59;13.34;77.46
76384;SHT30;65204;48.606;7.598;2023-11-19T02:25:32;13.34;77.58
76384;SHT30;65204;48.606;7.598;2023-11-19T02:26:24;13.31;77.54
76384;SHT30;65204;48.606;7.598;2023-11-19T02:27:02;13.33;77.65
76384;SHT30;65204;48.606;7.598;2023-11-19T02:27:51;13.34;77.67
76384;SHT30;65204;48.606;7.598;2023-11-19T02:28:26;13.33;77.79
76384;SHT30;65204;48.606;7.598;2023-11-19T02:28:56;13.34;77.76
76384;SHT30;65204;48.606;7.598;2023-11-19T02:29:26;13.34;77.81
76384;SHT30;65204;48.606;7.598;2023-11-19T02:29:57;13.35;77.78
76384;SHT30;65204;48.606;7.598;2023-11-19T02:30:27;13.35;77.82
76384;SHT30;65204;48.606;7.598;2023-11-19T02:30:59;13.35;77.81
76384;SHT30;65204;48.606;7.598;2023-11-19T02:31:29;13.38;77.87
76384;SHT30;65204;48.606;7.598;2023-11-19T02:32:00;13.43;77.82
76384;SHT30;65204;48.606;7.598;2023-11-19T02:32:33;13.37;78.00
76384;SHT30;65204;48.606;7.598;2023-11-19T02:33:03;13.40;77.86
76384;SHT30;65204;48.606;7.598;2023-11-19T02:33:36;13.40;77.88
76384;SHT30;65204;48.606;7.598;2023-11-19T02:34:07;13.41;77.83
76384;SHT30;65204;48.606;7.598;2023-11-19T02:34:37;13.44;77.83
76384;SHT30;65204;48.606;7.598;2023-11-19T02:35:07;13.44;77.80
76384;SHT30;65204;48.606;7.598;2023-11-19T02:35:38;13.44;77.81
76384;SHT30;65204;48.606;7.598;2023-11-19T02:36:08;13.44;77.77
76384;SHT30;65204;48.606;7.598;2023-11-19T02:36:39;13.44;77.85
76384;SHT30;65204;48.606;7.598;2023-11-19T02:37:11;13.47;77.78
76384;SHT30;65204;48.606;7.598;2023-11-19T02:37:42;13.47;77.79
76384;SHT30;65204;48.606;7.598;2023-11-19T02:38:12;13.44;77.75
76384;SHT30;65204;48.606;7.598;2023-11-19T02:38:44;13.47;77.78
76384;SHT30;65204;48.606;7.598;2023-11-19T02:39:15;13.50;77.76
76384;SHT30;65204;48.606;7.598;2023-11-19T02:39:51;13.50;77.76
76384;SHT30;65204;48.606;7.598;2023-11-19T02:40:21;13.51;77.79
76384;SHT30;65204;48.606;7.598;2023-11-19T02:40:54;13.51;77.79
76384;SHT30;65204;48.606;7.598;2023-11-19T02:41:24;13.54;77.78
76384;SHT30;65204;48.606;7.598;2023-11-19T02:41:54;13.54;77.76
76384;SHT30;65204;48.606;7.598;2023-11-19T02:42:25;13.55;77.73
76384;SHT30;65204;48.606;7.598;2023-11-19T02:42:55;13.55;77.70
76384;SHT30;65204;48.606;7.598;2023-11-19T02:43:26;13.55;77.65
76384;SHT30;65204;48.606;7.598;2023-11-19T02:43:56;13.58;77.78
76384;SHT30;65204;48.606;7.598;2023-11-19T02:44:26;13.57;77.77
76384;SHT30;65204;48.606;7.598;2023-11-19T02:45:00;13.59;77.69
76384;SHT30;65204;48.606;7.598;2023-11-19T02:45:30;13.59;77.78
76384;SHT30;65204;48.606;7.598;2023-11-19T02:46:04;13.58;77.75
76384;SHT30;65204;48.606;7.598;2023-11-19T02:46:37;13.58;77.82
76384;SHT30;65204;48.606;7.598;2023-11-19T02:47:08;13.59;77.79
76384;SHT30;65204;48.606;7.598;2023-11-19T02:47:38;13.58;77.83
76384;SHT30;65204;48.606;7.598;2023-11-19T02:48:08;13.61;77.85
76384;SHT30;65204;48.606;7.598;2023-11-19T02:48:40;13.59;77.89
76384;SHT30;65204;48.606;7.598;2023-11-19T02:49:10;13.58;77.88
76384;SHT30;65204;48.606;7.598;2023-11-19T02:49:40;13.59;77.86
76384;SHT30;65204;48.606;7.598;2023-11-19T02:50:11;13.59;77.87
76384;SHT30;65204;48.606;7.598;2023-11-19T02:50:44;13.59;77.87
76384;SHT30;65204;48.606;7.598;2023-11-19T02:51:16;13.61;77.86
76384;SHT30;65204;48.606;7.598;2023-11-19T02:51:46;13.62;78.00
76384;SHT30;65204;48.606;7.598;2023-11-19T02:52:16;13.61;77.92
76384;SHT30;65204;48.606;7.598;2023-11-19T02:52:47;13.62;77.88
76384;SHT30;65204;48.606;7.598;2023-11-19T02:53:18;13.64;77.93
76384;SHT30;65204;48.606;7.598;2023-11-19T02:53:52;13.67;77.92
76384;SHT30;65204;48.606;7.598;2023-11-19T02:54:22;13.67;77.88
76384;SHT30;65204;48.606;7.598;2023-11-19T02:54:57;13.65;77.90
76384;SHT30;65204;48.606;7.598;2023-11-19T02:55:27;13.71;77.89
76384;SHT30;65204;48.606;7.598;2023-11-19T02:56:00;13.69;77.88
76384;SHT30;65204;48.606;7.598;2023-11-19T02:56:36;13.68;77.95
76384;SHT30;65204;48.606;7.598;2023-11-19T02:57:09;13.68;77.94
76384;SHT30;65204;48.606;7.598;2023-11-19T02:57:41;13.67;78.01
76384;SHT30;65204;48.606;7.598;2023-11-19T02:58:18;13.68;78.15
76384;SHT30;65204;48.606;7.598;2023-11-19T02:58:53;13.69;78.12
76384;SHT30;65204;48.606;7.598;2023-11-19T02:59:24;13.67;78.17
76384;SHT30;65204;48.606;7.598;2023-11-19T02:59:58;13.71;78.11
76384;SHT30;65204;48.606;7.598;2023-11-19T03:00:28;13.69;78.16
76384;SHT30;65204;48.606;7.598;2023-11-19T03:01:12;13.68;78.15
76384;SHT30;65204;48.606;7.598;2023-11-19T03:01:49;13.71;78.18
76384;SHT30;65204;48.606;7.598;2023-11-19T03:02:20;13.72;78.14
76384;SHT30;65204;48.606;7.598;2023-11-19T03:02:51;13.71;78.12
76384;SHT30;65204;48.606;7.598;2023-11-19T03:03:40;13.68;78.41
76384;SHT30;65204;48.606;7.598;2023-11-19T03:04:10;13.71;78.29
76384;SHT30;65204;48.606;7.598;2023-11-19T03:04:42;13.71;78.23
76384;SHT30;65204;48.606;7.598;2023-11-19T03:05:15;13.71;78.22
76384;SHT30;65204;48.606;7.598;2023-11-19T03:05:47;13.75;78.18
76384;SHT30;65204;48.606;7.598;2023-11-19T03:06:17;13.75;78.22
76384;SHT30;65204;48.606;7.598;2023-11-19T03:06:48;13.75;78.23
76384;SHT30;65204;48.606;7.598;2023-11-19T03:07:19;13.75;78.13
76384;SHT30;65204;48.606;7.598;2023-11-19T03:07:49;13.78;78.18
76384;SHT30;65204;48.606;7.598;2023-11-19T03:08:19;13.79;78.14
76384;SHT30;65204;48.606;7.598;2023-11-19T03:08:50;13.78;78.19
76384;SHT30;65204;48.606;7.598;2023-11-19T03:09:20;13.81;78.13
76384;SHT30;65204;48.606;7.598;2023-11-19T03:09:50;13.79;78.17
76384;SHT30;65204;48.606;7.598;2023-11-19T03:10:21;13.82;78.23
76384;SHT30;65204;48.606;7.598;2023-11-19T03:10:51;13.81;78.22
76384;SHT30;65204;48.606;7.598;2023-11-19T03:11:21;13.82;78.10
76384;SHT30;65204;48.606;7.598;2023-11-19T03:11:52;13.85;78.03
76384;SHT30;65204;48.606;7.598;2023-11-19T03:12:22;13.85;78.04
76384;SHT30;65204;48.606;7.598;2023-11-19T03:12:52;13.86;78.05
76384;SHT30;65204;48.606;7.598;2023-11-19T03:13:25;13.83;78.08
76384;SHT30;65204;48.606;7.598;2023-11-19T03:13:55;13.85;77.98
76384;SHT30;65204;48.606;7.598;2023-11-19T03:14:26;13.86;77.95
76384;SHT30;65204;48.606;7.598;2023-11-19T03:14:56;13.89;77.91
76384;SHT30;65204;48.606;7.598;2023-11-19T03:15:26;13.89;77.95
76384;SHT30;65204;48.606;7.598;2023-11-19T03:15:56;13.89;77.96
76384;SHT30;65204;48.606;7.598;2023-11-19T03:16:27;13.89;78.03
76384;SHT30;65204;48.606;7.598;2023-11-19T03:16:57;13.89;78.09
76384;SHT30;65204;48.606;7.598;2023-11-19T03:17:27;13.92;77.98
76384;SHT30;65204;48.606;7.598;2023-11-19T03:17:58;13.90;78.02
76384;SHT30;65204;48.606;7.598;2023-11-19T03:18:28;13.92;78.05